Airport Name : Rosecrans Mem

Other Name : Rosecrans Mem

ICAO : KSTJ

IATA :

FAA : STJ

Latitude : 39.771944

Longitude : -94.909706

Country : United States

Local Date and Time : 16 Jun 2024 21:03

 

TAF (Terminal Aerodrome Forecast)

KSTJ 162320Z 1700/1724 18015G21KT P6SM FEW050 FM170100 18010KT P6SM FEW250 FM171400 19015G25KT P6SM FEW250

 

METAR (METeorological Aerodrome Report)

KSTJ 170153Z AUTO 17009KT 10SM SCT110 29/23 A2977 RMK AO2 SLP071 T02940233

KSTJ 170053Z AUTO 18010KT 10SM BKN100 BKN110 31/24 A2976 RMK AO2 SLP067 T03110239

KSTJ 162353Z AUTO 19010KT 10SM CLR 32/24 A2975 RMK AO2 SLP063 T03170239 10328 20289 56005

KSTJ 162253Z 19011G20KT 10SM CLR 32/23 A2975 RMK AO2 SLP063 T03220233